createdAt,value
2018-01-26T00:00:05.359Z,82.50
2018-01-26T00:02:34.301Z,83.40
2018-01-26T00:05:02.184Z,84.10
2018-01-26T00:07:30.191Z,84.20
2018-01-26T00:09:58.162Z,84.60
2018-01-26T00:12:26.062Z,86.90
2018-01-26T00:14:53.923Z,87.00
2018-01-26T00:17:22.563Z,87.70
2018-01-26T00:19:51.423Z,87.80
2018-01-26T00:22:19.384Z,88.10
2018-01-26T00:24:47.370Z,85.80
2018-01-26T00:27:15.363Z,87.10
2018-01-26T00:29:43.543Z,87.80
2018-01-26T00:32:11.342Z,87.60
2018-01-26T00:34:39.154Z,87.10
2018-01-26T00:37:07.102Z,87.10
2018-01-26T00:39:35.023Z,87.60
2018-01-26T00:42:03.203Z,84.10
2018-01-26T00:44:31.483Z,84.30
2018-01-26T00:47:00.841Z,84.90
2018-01-26T00:49:28.760Z,85.90
2018-01-26T00:51:56.640Z,83.80
2018-01-26T00:54:24.442Z,83.20
2018-01-26T00:56:52.261Z,85.70
2018-01-26T00:59:20.400Z,85.70
2018-01-26T01:01:49.179Z,85.20
2018-01-26T01:04:16.959Z,85.20
2018-01-26T01:06:45.500Z,82.90
2018-01-26T01:11:45.279Z,82.30
2018-01-26T01:14:13.173Z,81.80
2018-01-26T01:16:41.559Z,85.80
2018-01-26T01:19:09.862Z,85.80
2018-01-26T01:21:39.326Z,87.00
2018-01-26T01:24:07.141Z,86.80
2018-01-26T01:26:35.002Z,89.40
2018-01-26T01:29:02.799Z,90.30
2018-01-26T01:31:30.740Z,90.60
2018-01-26T01:33:59.379Z,90.40
2018-01-26T01:36:27.259Z,90.40
2018-01-26T01:38:55.159Z,90.70
2018-01-26T01:41:22.999Z,90.90
2018-01-26T01:43:50.759Z,90.40
2018-01-26T01:46:18.959Z,90.10
2018-01-26T01:48:59.339Z,90.00
2018-01-26T01:51:27.339Z,90.00
2018-01-26T01:53:55.179Z,89.70
2018-01-26T01:56:23.040Z,90.00
2018-01-26T01:58:51.179Z,88.00
2018-01-26T02:01:19.101Z,87.70
2018-01-26T02:03:47.279Z,87.70
2018-01-26T02:06:15.199Z,88.50
2018-01-26T02:08:43.019Z,89.10
2018-01-26T02:11:10.802Z,87.30
2018-01-26T02:13:38.719Z,85.20
2018-01-26T02:16:07.099Z,87.10
2018-01-26T02:18:35.279Z,87.30
2018-01-26T02:21:05.144Z,88.80
2018-01-26T02:23:32.962Z,88.00
2018-01-26T02:26:01.220Z,88.10
2018-01-26T02:28:29.180Z,89.20
2018-01-26T02:30:57.100Z,90.00
2018-01-26T02:33:24.960Z,86.70
2018-01-26T02:35:53.181Z,85.90
2018-01-26T02:38:21.280Z,87.00
2018-01-26T02:40:50.620Z,87.90
2018-01-26T02:43:19.219Z,90.20
2018-01-26T02:45:47.259Z,90.10
2018-01-26T02:48:15.080Z,89.60
2018-01-26T02:50:42.940Z,90.10
2018-01-26T02:53:11.139Z,90.70
2018-01-26T02:55:38.944Z,90.80
2018-01-26T02:58:06.780Z,90.90
2018-01-26T03:00:34.620Z,90.90
2018-01-26T03:03:02.580Z,90.80
2018-01-26T03:05:30.440Z,90.90
2018-01-26T03:07:58.479Z,90.80
2018-01-26T03:10:27.041Z,90.60
2018-01-26T03:12:54.939Z,90.60
2018-01-26T03:15:23.179Z,90.00
2018-01-26T03:17:51.099Z,89.40
2018-01-26T03:20:19.601Z,89.00
2018-01-26T03:22:47.639Z,88.70
2018-01-26T03:25:15.899Z,88.30
2018-01-26T03:27:44.000Z,88.70
2018-01-26T03:30:11.839Z,89.20
2018-01-26T03:32:39.679Z,89.20
2018-01-26T03:35:07.585Z,88.70
2018-01-26T03:37:35.501Z,89.10
2018-01-26T03:40:04.539Z,89.70
2018-01-26T03:42:32.300Z,89.70
2018-01-26T03:45:00.220Z,90.30
2018-01-26T03:47:28.260Z,90.10
2018-01-26T03:49:56.080Z,89.60
2018-01-26T03:52:29.539Z,89.50
2018-01-26T03:54:58.279Z,89.50
2018-01-26T03:57:26.139Z,89.50
2018-01-26T03:59:55.379Z,88.70
2018-01-26T04:02:23.220Z,88.60
2018-01-26T04:04:51.139Z,88.60
2018-01-26T04:07:19.059Z,89.10
2018-01-26T04:09:47.879Z,89.10
2018-01-26T04:12:15.639Z,89.10
2018-01-26T04:14:44.220Z,89.10
2018-01-26T04:17:12.180Z,89.10
2018-01-26T04:19:39.960Z,89.60
2018-01-26T04:22:07.819Z,89.70
2018-01-26T04:24:35.739Z,89.40
2018-01-26T04:27:03.661Z,89.20
2018-01-26T04:29:31.579Z,89.10
2018-01-26T04:31:59.499Z,88.80
2018-01-26T04:34:27.340Z,88.30
2018-01-26T04:36:56.702Z,87.80
2018-01-26T04:39:24.880Z,88.10
2018-01-26T04:41:52.661Z,88.50
2018-01-26T04:44:20.860Z,89.20
2018-01-26T04:46:49.240Z,90.00
2018-01-26T04:49:17.081Z,90.00
2018-01-26T04:51:45.700Z,90.00
2018-01-26T04:54:13.820Z,90.00
2018-01-26T04:56:42.422Z,89.40
2018-01-26T04:59:10.545Z,89.40
2018-01-26T05:01:38.599Z,89.30
2018-01-26T05:04:06.519Z,90.00
2018-01-26T05:06:34.899Z,90.00
2018-01-26T05:09:03.100Z,89.70
2018-01-26T05:11:31.140Z,89.40
2018-01-26T05:13:59.461Z,88.80
2018-01-26T05:16:27.637Z,88.30
2018-01-26T05:18:55.540Z,88.40
2018-01-26T05:21:23.300Z,88.60
2018-01-26T05:23:51.340Z,88.70
2018-01-26T05:26:19.382Z,88.70
2018-01-26T05:28:47.220Z,88.90
2018-01-26T05:31:15.021Z,89.10
2018-01-26T05:33:44.380Z,88.30
2018-01-26T05:36:12.881Z,88.30
2018-01-26T05:38:41.339Z,88.10
2018-01-26T05:41:09.284Z,88.70
2018-01-26T05:43:37.380Z,89.00
2018-01-26T05:46:06.460Z,88.80
2018-01-26T05:48:34.620Z,88.90
2018-01-26T05:51:02.382Z,88.90
2018-01-26T05:53:30.284Z,88.80
2018-01-26T05:55:57.998Z,88.40
2018-01-26T05:58:28.401Z,88.30
2018-01-26T06:00:56.160Z,88.10
2018-01-26T06:03:24.759Z,88.80
2018-01-26T06:05:52.502Z,88.70
2018-01-26T06:08:20.174Z,88.70
2018-01-26T06:10:47.980Z,88.70
2018-01-26T06:13:15.743Z,89.10
2018-01-26T06:15:43.503Z,88.00
2018-01-26T06:18:11.283Z,87.70
2018-01-26T06:20:39.505Z,87.30
2018-01-26T06:23:07.306Z,87.10
2018-01-26T06:25:35.063Z,86.70
2018-01-26T06:28:02.811Z,86.70
2018-01-26T06:30:30.663Z,87.00
2018-01-26T06:32:58.404Z,87.70
2018-01-26T06:35:26.144Z,88.40
2018-01-26T06:37:53.923Z,88.40
2018-01-26T06:40:21.703Z,88.80
2018-01-26T06:42:49.484Z,89.10
2018-01-26T06:45:17.363Z,89.00
2018-01-26T06:47:45.103Z,88.70
2018-01-26T06:50:12.904Z,87.70
2018-01-26T06:52:40.683Z,87.60
2018-01-26T06:55:08.461Z,87.20
2018-01-26T06:57:36.161Z,86.70
2018-01-26T07:00:04.104Z,87.30
2018-01-26T07:02:31.863Z,88.10
2018-01-26T07:04:59.601Z,87.80
2018-01-26T07:07:27.358Z,87.50
2018-01-26T07:09:55.899Z,85.60
2018-01-26T07:12:23.647Z,85.60
2018-01-26T07:14:51.543Z,85.30
2018-01-26T07:17:19.318Z,84.70
2018-01-26T07:19:47.379Z,84.20
2018-01-26T07:22:15.144Z,84.60
2018-01-26T07:24:42.842Z,84.70
2018-01-26T07:27:10.578Z,84.60
2018-01-26T07:29:38.540Z,84.20
2018-01-26T07:32:06.298Z,84.10
2018-01-26T07:34:34.122Z,84.10
2018-01-26T07:37:01.938Z,83.00
2018-01-26T07:39:29.702Z,83.00
2018-01-26T07:41:57.498Z,82.80
2018-01-26T07:44:25.317Z,82.40
2018-01-26T07:46:53.118Z,81.80
2018-01-26T07:49:20.814Z,81.20
2018-01-26T07:51:48.680Z,80.10
2018-01-26T07:54:16.419Z,79.40
2018-01-26T07:56:44.139Z,79.20
2018-01-26T07:59:12.254Z,79.40
2018-01-26T08:01:41.565Z,79.10
2018-01-26T08:04:12.244Z,79.70
2018-01-26T08:06:41.255Z,79.10
2018-01-26T08:09:10.395Z,79.00
2018-01-26T08:11:39.055Z,78.40
2018-01-26T08:14:09.075Z,77.30
2018-01-26T08:16:38.025Z,75.00
2018-01-26T08:19:08.435Z,75.10
2018-01-26T08:21:37.195Z,76.10
2018-01-26T08:24:05.245Z,75.70
2018-01-26T08:26:36.425Z,76.50
2018-01-26T08:29:04.465Z,71.90
2018-01-26T08:31:32.535Z,73.40
2018-01-26T08:34:00.665Z,71.10
2018-01-26T08:36:29.614Z,76.90
2018-01-26T08:38:58.155Z,74.80
2018-01-26T08:41:28.924Z,76.80
2018-01-26T08:43:57.075Z,75.50
2018-01-26T08:46:25.985Z,76.20
2018-01-26T08:48:54.586Z,76.80
2018-01-26T08:51:23.146Z,76.10
2018-01-26T08:53:53.215Z,75.30
2018-01-26T08:56:21.684Z,74.30
2018-01-26T08:58:51.005Z,72.90
2018-01-26T09:01:20.475Z,68.10
2018-01-26T09:03:48.666Z,71.10
2018-01-26T09:06:17.425Z,74.90
2018-01-26T09:08:45.564Z,74.50
2018-01-26T09:11:13.845Z,74.40
2018-01-26T09:13:46.115Z,73.20
2018-01-26T09:16:16.166Z,72.50
2018-01-26T09:18:45.346Z,71.00
2018-01-26T09:21:14.446Z,70.60
2018-01-26T09:23:42.560Z,70.00
2018-01-26T09:26:11.165Z,70.00
2018-01-26T09:28:40.028Z,69.60
2018-01-26T09:31:09.137Z,70.10
2018-01-26T09:33:37.828Z,69.90
2018-01-26T09:36:07.935Z,68.80
2018-01-26T09:38:35.966Z,67.60
2018-01-26T09:41:04.625Z,68.50
2018-01-26T09:43:33.426Z,68.50
2018-01-26T09:46:03.495Z,68.50
2018-01-26T09:48:33.304Z,68.00
2018-01-26T09:51:03.225Z,68.20
2018-01-26T09:53:32.135Z,67.90
2018-01-26T09:56:01.936Z,68.70
2018-01-26T09:58:31.236Z,68.40
2018-01-26T10:00:59.426Z,68.10
2018-01-26T10:03:27.485Z,67.70
2018-01-26T10:05:57.244Z,67.70
2018-01-26T10:08:25.484Z,66.20
2018-01-26T10:10:54.425Z,66.60
2018-01-26T10:13:22.625Z,66.90
2018-01-26T10:15:50.745Z,66.90
2018-01-26T10:18:19.126Z,66.60
2018-01-26T10:20:47.736Z,67.40
2018-01-26T10:23:18.004Z,67.70
2018-01-26T10:25:46.224Z,67.30
2018-01-26T10:28:14.195Z,67.80
2018-01-26T10:30:42.376Z,67.40
2018-01-26T10:33:10.494Z,67.00
2018-01-26T10:35:38.685Z,67.30
2018-01-26T10:38:06.696Z,67.40
2018-01-26T10:40:34.694Z,65.00
2018-01-26T10:43:02.815Z,65.30
2018-01-26T10:45:30.796Z,66.10
2018-01-26T10:47:58.884Z,66.00
2018-01-26T10:50:26.986Z,65.80
2018-01-26T10:52:55.065Z,65.90
2018-01-26T10:55:23.287Z,65.90
2018-01-26T10:57:51.306Z,65.90
2018-01-26T11:00:19.415Z,65.30
2018-01-26T11:02:47.499Z,66.10
2018-01-26T11:05:15.705Z,66.90
2018-01-26T11:07:43.766Z,65.70
2018-01-26T11:10:11.885Z,66.20
2018-01-26T11:12:40.025Z,65.70
2018-01-26T11:15:08.104Z,65.20
2018-01-26T11:17:36.284Z,65.40
2018-01-26T11:20:05.245Z,65.50
2018-01-26T11:22:33.264Z,65.50
2018-01-26T11:25:01.426Z,65.70
2018-01-26T11:27:30.355Z,65.60
2018-01-26T11:29:58.404Z,64.80
2018-01-26T11:32:26.595Z,65.10
2018-01-26T11:34:54.725Z,65.20
2018-01-26T11:37:23.554Z,65.30
2018-01-26T11:39:51.684Z,65.90
2018-01-26T11:42:19.768Z,66.30
2018-01-26T11:44:47.907Z,66.40
2018-01-26T11:47:15.885Z,66.50
2018-01-26T11:49:46.375Z,66.10
2018-01-26T11:52:14.565Z,65.60
2018-01-26T11:54:42.524Z,66.10
2018-01-26T11:57:10.768Z,66.20
2018-01-26T11:59:38.845Z,66.00
2018-01-26T12:02:07.235Z,65.20
2018-01-26T12:04:37.656Z,65.90
2018-01-26T12:07:05.798Z,65.80
2018-01-26T12:09:33.904Z,65.60
2018-01-26T12:12:02.026Z,64.20
2018-01-26T12:14:30.245Z,64.00
2018-01-26T12:16:58.345Z,64.00
2018-01-26T12:19:26.635Z,63.90
2018-01-26T12:21:57.046Z,63.80
2018-01-26T12:24:25.195Z,64.00
2018-01-26T12:26:55.925Z,63.40
2018-01-26T12:29:24.004Z,63.90
2018-01-26T12:31:52.745Z,63.90
2018-01-26T12:34:23.046Z,64.00
2018-01-26T12:36:51.064Z,63.90
2018-01-26T12:39:19.385Z,64.30
2018-01-26T12:41:48.346Z,63.70
2018-01-26T12:44:16.435Z,64.90
2018-01-26T12:46:46.723Z,65.30
2018-01-26T12:49:14.805Z,65.40
2018-01-26T12:51:43.681Z,64.60
2018-01-26T12:54:12.395Z,64.70
2018-01-26T12:56:40.415Z,64.70
2018-01-26T12:59:09.497Z,66.30
2018-01-26T13:01:37.720Z,66.30
2018-01-26T13:04:05.825Z,64.70
2018-01-26T13:06:33.955Z,64.30
2018-01-26T13:09:02.165Z,63.80
2018-01-26T13:11:31.726Z,64.00
2018-01-26T13:13:59.785Z,64.80
2018-01-26T13:16:27.787Z,65.40
2018-01-26T13:18:58.015Z,64.90
2018-01-26T13:21:26.449Z,65.70
2018-01-26T13:23:54.555Z,65.60
2018-01-26T13:26:22.816Z,65.50
2018-01-26T13:28:50.895Z,65.00
2018-01-26T13:31:19.856Z,65.70
2018-01-26T13:33:47.995Z,64.90
2018-01-26T13:36:16.086Z,65.40
2018-01-26T13:38:44.096Z,65.60
2018-01-26T13:41:13.216Z,65.90
2018-01-26T13:43:41.576Z,65.70
2018-01-26T13:46:09.826Z,65.20
2018-01-26T13:48:37.855Z,65.80
2018-01-26T13:51:06.027Z,66.40
2018-01-26T13:53:34.225Z,67.00
2018-01-26T13:56:02.396Z,66.90
2018-01-26T13:58:31.385Z,66.60
2018-01-26T14:00:59.616Z,66.50
2018-01-26T14:03:28.584Z,66.60
2018-01-26T14:05:57.175Z,67.10
2018-01-26T14:08:25.165Z,67.50
2018-01-26T14:10:55.706Z,68.30
2018-01-26T14:13:23.786Z,68.30
2018-01-26T14:15:51.954Z,68.70
2018-01-26T14:18:20.094Z,68.60
2018-01-26T14:20:48.165Z,68.30
2018-01-26T14:23:16.195Z,68.70
2018-01-26T14:25:44.246Z,65.70
2018-01-26T14:28:12.294Z,69.20
2018-01-26T14:30:40.405Z,62.40
2018-01-26T14:33:08.812Z,66.30
2018-01-26T14:35:36.835Z,68.80
2018-01-26T14:38:04.945Z,65.60
2018-01-26T14:40:34.005Z,65.80
2018-01-26T14:43:02.176Z,65.80
2018-01-26T14:45:30.335Z,67.00
2018-01-26T14:47:58.376Z,69.50
2018-01-26T14:50:26.496Z,72.50
2018-01-26T14:52:55.184Z,70.20
2018-01-26T14:55:24.816Z,74.30
2018-01-26T14:57:53.246Z,74.00
2018-01-26T15:00:24.010Z,65.90
2018-01-26T15:05:23.154Z,70.50
2018-01-26T15:07:51.204Z,68.20
2018-01-26T15:10:19.341Z,65.90
2018-01-26T15:12:47.532Z,67.00
2018-01-26T15:15:15.554Z,67.40
2018-01-26T15:17:43.664Z,73.30
2018-01-26T15:20:11.716Z,78.40
2018-01-26T15:22:40.576Z,70.60
2018-01-26T15:25:08.815Z,70.60
2018-01-26T15:27:36.984Z,75.70
2018-01-26T15:32:39.185Z,74.80
2018-01-26T15:35:07.315Z,74.20
2018-01-26T15:37:35.625Z,76.30
2018-01-26T15:40:03.995Z,78.10
2018-01-26T15:42:32.654Z,77.70
2018-01-26T15:45:01.704Z,71.70
2018-01-26T15:47:30.025Z,71.60
2018-01-26T15:49:58.274Z,76.60
2018-01-26T15:52:26.475Z,73.20
2018-01-26T15:54:56.435Z,73.50
2018-01-26T15:57:24.576Z,74.30
2018-01-26T15:59:52.695Z,75.30
2018-01-26T16:02:20.844Z,76.90
2018-01-26T16:04:49.215Z,77.30
2018-01-26T16:07:17.525Z,80.50
2018-01-26T16:09:45.754Z,81.80
2018-01-26T16:12:15.485Z,80.00
2018-01-26T16:14:43.595Z,80.00
2018-01-26T16:17:11.886Z,79.70
2018-01-26T16:19:42.315Z,79.60
2018-01-26T16:22:10.456Z,79.50
2018-01-26T16:24:41.865Z,79.30
2018-01-26T16:27:10.144Z,78.80
2018-01-26T16:29:38.405Z,79.10
2018-01-26T16:32:06.546Z,79.20
2018-01-26T16:34:35.515Z,79.30
2018-01-26T16:39:36.475Z,78.80
2018-01-26T16:42:08.236Z,78.80
2018-01-26T16:44:38.195Z,79.50
2018-01-26T16:47:06.265Z,79.50
2018-01-26T16:49:34.265Z,80.00
2018-01-26T16:52:03.475Z,80.20
2018-01-26T16:54:31.605Z,80.10
2018-01-26T16:56:59.805Z,80.10
2018-01-26T16:59:28.645Z,80.50
2018-01-26T17:01:56.794Z,80.40
2018-01-26T17:04:25.045Z,80.40
2018-01-26T17:06:53.291Z,80.70
2018-01-26T17:09:22.265Z,81.00
2018-01-26T17:11:50.365Z,81.00
2018-01-26T17:14:20.626Z,81.60
2018-01-26T17:16:48.774Z,81.20
2018-01-26T17:19:18.405Z,81.50
2018-01-26T17:21:46.585Z,81.60
2018-01-26T17:24:14.974Z,81.90
2018-01-26T17:26:43.166Z,82.10
2018-01-26T17:29:11.406Z,82.20
2018-01-26T17:31:39.486Z,82.40
2018-01-26T17:34:08.535Z,83.40
2018-01-26T17:36:37.285Z,83.60
2018-01-26T17:39:06.425Z,83.60
2018-01-26T17:41:34.536Z,83.50
2018-01-26T17:44:02.795Z,83.10
2018-01-26T17:46:31.134Z,83.00
2018-01-26T17:48:59.854Z,83.30
2018-01-26T17:51:28.074Z,83.80
2018-01-26T17:53:56.235Z,83.40
2018-01-26T17:56:24.375Z,83.40
2018-01-26T17:58:53.194Z,82.60
2018-01-26T18:01:23.454Z,82.60
2018-01-26T18:03:51.664Z,82.50
2018-01-26T18:06:19.875Z,82.70
2018-01-26T18:08:47.985Z,82.80
2018-01-26T18:11:16.376Z,83.00
2018-01-26T18:13:44.744Z,83.20
2018-01-26T18:16:14.495Z,83.40
2018-01-26T18:18:42.765Z,83.80
2018-01-26T18:21:10.826Z,84.10
2018-01-26T18:23:39.123Z,84.30
2018-01-26T18:26:07.291Z,84.40
2018-01-26T18:28:35.654Z,84.30
2018-01-26T18:31:03.994Z,84.60
2018-01-26T18:33:32.115Z,84.60
2018-01-26T18:36:00.216Z,84.70
2018-01-26T18:38:28.364Z,84.70
2018-01-26T18:40:56.445Z,84.80
2018-01-26T18:43:25.374Z,85.20
2018-01-26T18:45:53.496Z,85.00
2018-01-26T18:48:21.736Z,85.00
2018-01-26T18:50:50.055Z,84.60
2018-01-26T18:53:18.105Z,85.00
2018-01-26T18:55:46.304Z,85.00
2018-01-26T18:58:14.685Z,84.90
2018-01-26T19:00:43.416Z,84.90
2018-01-26T19:03:12.306Z,85.00
2018-01-26T19:05:42.134Z,84.90
2018-01-26T19:08:10.494Z,84.90
2018-01-26T19:10:38.615Z,84.80
2018-01-26T19:13:07.315Z,84.70
2018-01-26T19:15:35.385Z,83.00
2018-01-26T19:18:07.556Z,81.00
2018-01-26T19:20:35.614Z,81.50
2018-01-26T19:23:03.845Z,82.90
2018-01-26T19:25:32.145Z,85.00
2018-01-26T19:28:00.254Z,84.30
2018-01-26T19:30:28.454Z,84.60
2018-01-26T19:32:56.545Z,84.60
2018-01-26T19:35:25.545Z,86.40
2018-01-26T19:37:53.705Z,86.40
2018-01-26T19:40:21.807Z,86.20
2018-01-26T19:42:49.946Z,83.90
2018-01-26T19:45:18.115Z,86.00
2018-01-26T19:47:46.654Z,83.40
2018-01-26T19:50:15.535Z,84.50
2018-01-26T19:52:43.745Z,84.40
2018-01-26T19:55:11.846Z,85.30
2018-01-26T19:57:40.155Z,85.50
2018-01-26T20:00:09.716Z,85.50
2018-01-26T20:02:38.985Z,86.10
2018-01-26T20:05:24.226Z,86.10
2018-01-26T20:07:55.176Z,86.20
2018-01-26T20:10:23.365Z,87.10
2018-01-26T20:12:56.776Z,88.20
2018-01-26T20:15:25.005Z,88.60
2018-01-26T20:17:53.364Z,88.70
2018-01-26T20:20:22.315Z,88.00
2018-01-26T20:22:50.426Z,88.00
2018-01-26T20:25:18.536Z,87.60
2018-01-26T20:27:46.785Z,87.00
2018-01-26T20:30:14.824Z,86.30
2018-01-26T20:32:42.806Z,83.20
2018-01-26T20:35:11.025Z,80.40
2018-01-26T20:37:39.036Z,84.00
2018-01-26T20:40:07.306Z,86.10
2018-01-26T20:42:35.505Z,86.20
2018-01-26T20:45:03.786Z,87.40
2018-01-26T20:47:31.924Z,87.00
2018-01-26T20:50:00.076Z,85.50
2018-01-26T20:52:28.256Z,87.00
2018-01-26T20:54:56.486Z,87.80
2018-01-26T20:57:24.595Z,88.60
2018-01-26T20:59:52.796Z,88.90
2018-01-26T21:02:20.916Z,88.90
2018-01-26T21:04:49.055Z,88.50
2018-01-26T21:07:17.095Z,88.40
2018-01-26T21:09:45.216Z,88.80
2018-01-26T21:12:13.505Z,89.20
2018-01-26T21:14:41.515Z,89.40
2018-01-26T21:17:09.646Z,89.70
2018-01-26T21:19:37.724Z,89.90
2018-01-26T21:22:05.804Z,89.50
2018-01-26T21:24:33.951Z,88.90
2018-01-26T21:27:02.055Z,87.60
2018-01-26T21:29:30.266Z,87.00
2018-01-26T21:31:58.285Z,86.00
2018-01-26T21:34:26.321Z,85.40
2018-01-26T21:39:26.656Z,87.00
2018-01-26T21:41:54.805Z,86.70
2018-01-26T21:44:23.656Z,86.10
2018-01-26T21:46:51.785Z,86.10
2018-01-26T21:49:19.905Z,86.30
2018-01-26T21:51:47.976Z,85.60
2018-01-26T21:54:16.095Z,85.00
2018-01-26T21:56:44.196Z,84.80
2018-01-26T21:59:12.295Z,84.30
2018-01-26T22:01:40.486Z,84.30
2018-01-26T22:04:09.375Z,83.90
2018-01-26T22:06:43.861Z,83.80
2018-01-26T22:09:11.791Z,83.80
2018-01-26T22:11:39.601Z,83.60
2018-01-26T22:14:07.460Z,83.50
2018-01-26T22:16:36.261Z,82.80
2018-01-26T22:19:04.201Z,82.70
2018-01-26T22:21:33.422Z,84.10
2018-01-26T22:24:01.622Z,85.10
2018-01-26T22:26:30.238Z,85.80
2018-01-26T22:28:58.740Z,85.70
2018-01-26T22:31:26.500Z,85.40
2018-01-26T22:33:54.844Z,85.80
2018-01-26T22:36:22.878Z,85.10
2018-01-26T22:38:50.891Z,84.80
2018-01-26T22:41:18.783Z,84.60
2018-01-26T22:43:46.743Z,84.20
2018-01-26T22:46:14.730Z,84.20
2018-01-26T22:48:42.864Z,83.20
2018-01-26T22:51:10.865Z,80.70
2018-01-26T22:53:38.683Z,80.20
2018-01-26T22:56:06.563Z,81.50
2018-01-26T22:58:34.593Z,82.30
2018-01-26T23:01:03.301Z,83.30
2018-01-26T23:03:32.120Z,83.30
2018-01-26T23:06:00.059Z,83.70
2018-01-26T23:08:28.043Z,83.00
2018-01-26T23:10:55.962Z,81.60
2018-01-26T23:13:24.183Z,80.90
2018-01-26T23:15:52.962Z,86.30
2018-01-26T23:18:21.010Z,86.30
2018-01-26T23:20:49.023Z,87.70
2018-01-26T23:23:17.502Z,88.30
2018-01-26T23:25:45.526Z,87.80
2018-01-26T23:28:13.860Z,85.90
2018-01-26T23:30:41.721Z,87.30
2018-01-26T23:33:09.684Z,88.70
2018-01-26T23:35:37.580Z,88.00
2018-01-26T23:38:05.824Z,88.30
2018-01-26T23:40:33.901Z,88.30
2018-01-26T23:43:01.741Z,89.40
2018-01-26T23:45:29.642Z,89.20
2018-01-26T23:47:57.839Z,88.30
2018-01-26T23:50:25.741Z,87.50
2018-01-26T23:52:53.520Z,86.90
2018-01-26T23:55:21.340Z,84.70
2018-01-26T23:57:49.383Z,84.40
